createdAt,value
2023-01-30T00:00:20.971Z,101058.34
2023-01-30T00:00:57.814Z,101057.50
2023-01-30T00:01:32.651Z,101063.47
2023-01-30T00:02:04.377Z,101056.63
2023-01-30T00:02:37.990Z,101058.31
2023-01-30T00:03:09.659Z,101058.31
2023-01-30T00:03:43.080Z,101062.59
2023-01-30T00:04:17.147Z,101057.50
2023-01-30T00:04:49.053Z,101065.16
2023-01-30T00:05:20.715Z,101064.28
2023-01-30T00:05:52.997Z,101054.94
2023-01-30T00:06:31.431Z,101056.63
2023-01-30T00:07:03.087Z,101067.72
2023-01-30T00:07:34.705Z,101066.88
2023-01-30T00:08:06.352Z,101063.41
2023-01-30T00:08:38.743Z,101066.00
2023-01-30T00:09:16.378Z,101059.19
2023-01-30T00:09:55.166Z,101061.72
2023-01-30T00:10:26.816Z,101059.16
2023-01-30T00:11:06.920Z,101056.59
2023-01-30T00:11:38.580Z,101059.97
2023-01-30T00:12:13.062Z,101061.69
2023-01-30T00:12:44.765Z,101066.75
2023-01-30T00:13:17.001Z,101059.94
2023-01-30T00:13:50.754Z,101056.53
2023-01-30T00:14:22.484Z,101057.38
2023-01-30T00:14:55.726Z,101058.19
2023-01-30T00:15:28.890Z,101058.19
2023-01-30T00:16:01.082Z,101048.84
2023-01-30T00:16:34.036Z,101053.13
2023-01-30T00:17:05.777Z,101051.41
2023-01-30T00:17:37.448Z,101046.28
2023-01-30T00:18:12.984Z,101057.38
2023-01-30T00:18:45.094Z,101049.72
2023-01-30T00:19:16.714Z,101049.72
2023-01-30T00:19:50.733Z,101053.97
2023-01-30T00:20:22.466Z,101049.72
2023-01-30T00:21:01.177Z,101050.56
2023-01-30T00:21:32.948Z,101049.72
2023-01-30T00:22:04.662Z,101053.97
2023-01-30T00:22:36.306Z,101053.97
2023-01-30T00:23:07.968Z,101050.56
2023-01-30T00:23:40.021Z,101053.16
2023-01-30T00:24:12.000Z,101053.16
2023-01-30T00:24:43.758Z,101050.59
2023-01-30T00:25:15.686Z,101048.88
2023-01-30T00:25:47.523Z,101049.75
2023-01-30T00:26:19.466Z,101048.88
2023-01-30T00:26:51.165Z,101055.72
2023-01-30T00:27:22.836Z,101052.31
2023-01-30T00:27:54.597Z,101048.88
2023-01-30T00:28:26.469Z,101052.31
2023-01-30T00:28:58.182Z,101050.59
2023-01-30T00:29:29.813Z,101052.25
2023-01-30T00:30:04.371Z,101053.97
2023-01-30T00:30:36.084Z,101049.72
2023-01-30T00:31:08.341Z,101048.00
2023-01-30T00:31:40.039Z,101050.56
2023-01-30T00:32:14.644Z,101046.28
2023-01-30T00:32:46.295Z,101049.75
2023-01-30T00:33:18.782Z,101048.84
2023-01-30T00:33:50.434Z,101056.53
2023-01-30T00:34:22.111Z,101046.28
2023-01-30T00:34:53.780Z,101048.00
2023-01-30T00:35:28.675Z,101047.19
2023-01-30T00:36:03.680Z,101050.56
2023-01-30T00:36:35.399Z,101048.03
2023-01-30T00:37:08.623Z,101039.50
2023-01-30T00:37:40.385Z,101039.50
2023-01-30T00:38:12.315Z,101045.47
2023-01-30T00:38:45.548Z,101048.03
2023-01-30T00:39:19.327Z,101049.75
2023-01-30T00:39:51.374Z,101048.03
2023-01-30T00:40:23.059Z,101043.78
2023-01-30T00:40:54.787Z,101044.59
2023-01-30T00:41:46.410Z,101047.16
2023-01-30T00:42:36.560Z,101040.28
2023-01-30T00:43:33.994Z,101046.28
2023-01-30T00:44:24.637Z,101038.59
2023-01-30T00:45:14.993Z,101044.53
2023-01-30T00:46:06.890Z,101043.69
2023-01-30T00:46:57.089Z,101046.25
2023-01-30T00:47:28.718Z,101043.69
2023-01-30T00:48:02.971Z,101042.84
2023-01-30T00:48:34.697Z,101043.69
2023-01-30T00:49:08.933Z,101041.13
2023-01-30T00:49:42.298Z,101042.00
2023-01-30T00:50:16.549Z,101044.50
2023-01-30T00:50:48.182Z,101045.38
2023-01-30T00:51:19.848Z,101042.00
2023-01-30T00:51:51.777Z,101038.59
2023-01-30T00:52:23.433Z,101039.44
2023-01-30T00:52:55.078Z,101037.72
2023-01-30T00:53:26.788Z,101037.72
2023-01-30T00:53:58.450Z,101039.44
2023-01-30T00:54:30.970Z,101036.88
2023-01-30T00:55:02.869Z,101039.44
2023-01-30T00:55:34.547Z,101040.25
2023-01-30T00:56:06.781Z,101033.44
2023-01-30T00:56:39.825Z,101030.88
2023-01-30T00:57:11.465Z,101036.88
2023-01-30T00:57:45.153Z,101036.03
2023-01-30T00:58:16.848Z,101036.03
2023-01-30T00:58:48.533Z,101042.81
2023-01-30T00:59:20.179Z,101034.28
2023-01-30T00:59:51.858Z,101032.56
2023-01-30T01:00:23.500Z,101031.72
2023-01-30T01:00:56.225Z,101034.28
2023-01-30T01:01:36.591Z,101032.56
2023-01-30T01:02:08.309Z,101037.69
2023-01-30T01:02:40.010Z,101026.63
2023-01-30T01:03:11.736Z,101036.84
2023-01-30T01:03:43.753Z,101030.03
2023-01-30T01:04:15.434Z,101028.31
2023-01-30T01:04:49.141Z,101035.13
2023-01-30T01:05:20.936Z,101025.75
2023-01-30T01:05:54.732Z,101025.75
2023-01-30T01:06:28.805Z,101029.16
2023-01-30T01:07:00.458Z,101029.16
2023-01-30T01:07:34.684Z,101029.16
2023-01-30T01:08:06.894Z,101030.03
2023-01-30T01:08:38.631Z,101024.06
2023-01-30T01:09:12.936Z,101026.56
2023-01-30T01:09:44.590Z,101023.16
2023-01-30T01:10:16.709Z,101026.56
2023-01-30T01:10:48.491Z,101022.31
2023-01-30T01:11:29.106Z,101018.94
2023-01-30T01:12:00.810Z,101017.19
2023-01-30T01:12:32.477Z,101012.94
2023-01-30T01:13:06.483Z,101016.34
2023-01-30T01:13:38.104Z,101021.44
2023-01-30T01:14:09.861Z,101012.03
2023-01-30T01:14:43.658Z,101013.75
2023-01-30T01:15:15.768Z,101012.91
2023-01-30T01:15:54.646Z,101010.34
2023-01-30T01:16:27.885Z,101011.19
2023-01-30T01:16:59.754Z,101013.75
2023-01-30T01:17:33.450Z,101013.75
2023-01-30T01:18:05.362Z,101012.88
2023-01-30T01:18:37.135Z,101009.47
2023-01-30T01:19:11.095Z,101013.75
2023-01-30T01:19:42.754Z,101005.19
2023-01-30T01:20:16.471Z,101010.28
2023-01-30T01:20:48.216Z,101007.72
2023-01-30T01:21:21.651Z,101012.84
2023-01-30T01:21:53.345Z,101005.97
2023-01-30T01:22:27.043Z,101002.59
2023-01-30T01:22:58.785Z,101005.13
2023-01-30T01:23:30.425Z,101006.84
2023-01-30T01:24:02.148Z,101004.28
2023-01-30T01:24:35.725Z,101009.38
2023-01-30T01:25:10.073Z,101004.25
2023-01-30T01:25:41.740Z,101007.63
2023-01-30T01:26:13.404Z,101001.69
2023-01-30T01:26:45.551Z,100996.56
2023-01-30T01:27:17.886Z,100997.41
2023-01-30T01:27:50.260Z,100999.97
2023-01-30T01:28:22.320Z,100993.16
2023-01-30T01:28:58.130Z,100994.88
2023-01-30T01:29:31.854Z,100998.28
2023-01-30T01:30:04.493Z,100995.72
2023-01-30T01:30:36.174Z,100988.84
2023-01-30T01:31:13.281Z,100998.22
2023-01-30T01:31:45.567Z,100998.25
2023-01-30T01:32:17.336Z,100999.13
2023-01-30T01:32:49.043Z,101000.78
2023-01-30T01:33:20.724Z,101005.03
2023-01-30T01:33:52.437Z,100996.50
2023-01-30T01:34:24.105Z,100998.22
2023-01-30T01:34:55.762Z,100996.53
2023-01-30T01:35:27.409Z,100997.38
2023-01-30T01:35:59.036Z,100993.06
2023-01-30T01:36:53.224Z,100998.22
2023-01-30T01:37:22.477Z,100994.81
2023-01-30T01:37:54.717Z,100990.50
2023-01-30T01:38:26.380Z,100999.88
2023-01-30T01:38:58.124Z,100992.25
2023-01-30T01:39:49.723Z,100995.63
2023-01-30T01:40:41.060Z,100987.09
2023-01-30T01:41:14.373Z,100987.09
2023-01-30T01:41:46.015Z,100985.38
2023-01-30T01:42:18.463Z,100987.94
2023-01-30T01:42:51.089Z,100986.25
2023-01-30T01:43:25.246Z,100983.69
2023-01-30T01:44:05.715Z,100987.91
2023-01-30T01:45:11.552Z,100991.34
2023-01-30T01:45:44.577Z,100987.03
2023-01-30T01:46:23.654Z,100993.00
2023-01-30T01:47:00.301Z,100994.72
2023-01-30T01:47:38.033Z,100987.03
2023-01-30T01:48:19.044Z,100989.59
2023-01-30T01:49:00.236Z,100975.97
2023-01-30T01:49:37.587Z,100983.59
2023-01-30T01:50:31.123Z,100984.44
2023-01-30T01:51:07.001Z,100983.59
2023-01-30T01:51:47.450Z,100982.72
2023-01-30T01:52:19.293Z,100981.03
2023-01-30T01:52:59.228Z,100975.03
2023-01-30T01:53:37.525Z,100979.31
2023-01-30T01:54:16.977Z,100979.28
2023-01-30T01:54:57.116Z,100971.66
2023-01-30T01:55:33.985Z,100965.69
2023-01-30T01:56:07.634Z,100959.75
2023-01-30T01:56:43.918Z,100958.03
2023-01-30T01:57:27.898Z,100961.44
2023-01-30T01:58:13.002Z,100958.91
2023-01-30T01:59:05.288Z,100968.25
2023-01-30T01:59:50.274Z,100958.91
2023-01-30T02:00:25.066Z,100952.94
2023-01-30T02:00:59.581Z,100965.69
2023-01-30T02:01:31.889Z,100962.31
2023-01-30T02:02:09.268Z,100953.78
2023-01-30T02:02:45.242Z,100962.31
2023-01-30T02:03:23.560Z,100952.09
2023-01-30T02:04:01.990Z,100953.78
2023-01-30T02:04:57.726Z,100952.94
2023-01-30T02:05:35.099Z,100954.59
2023-01-30T02:06:07.523Z,100958.03
2023-01-30T02:06:42.131Z,100946.97
2023-01-30T02:07:17.597Z,100948.63
2023-01-30T02:08:11.441Z,100952.88
2023-01-30T02:08:57.383Z,100946.91
2023-01-30T02:09:36.223Z,100946.91
2023-01-30T02:10:13.789Z,100940.09
2023-01-30T02:11:10.179Z,100936.66
2023-01-30T02:11:52.702Z,100940.97
2023-01-30T02:12:25.641Z,100947.72
2023-01-30T02:12:57.330Z,100940.91
2023-01-30T02:13:29.518Z,100931.56
2023-01-30T02:14:03.105Z,100939.22
2023-01-30T02:14:37.379Z,100937.50
2023-01-30T02:15:09.488Z,100949.44
2023-01-30T02:15:41.538Z,100940.84
2023-01-30T02:16:14.028Z,100932.41
2023-01-30T02:16:47.333Z,100938.34
2023-01-30T02:17:20.025Z,100938.34
2023-01-30T02:17:54.005Z,100938.34
2023-01-30T02:18:27.397Z,100925.59
2023-01-30T02:19:01.645Z,100924.72
2023-01-30T02:20:03.430Z,100931.53
2023-01-30T02:20:37.947Z,100924.72
2023-01-30T02:21:59.414Z,100932.34
2023-01-30T02:23:24.088Z,100922.97
2023-01-30T02:24:16.098Z,100924.69
2023-01-30T02:24:53.210Z,100927.22
2023-01-30T02:26:06.107Z,100921.28
2023-01-30T02:26:52.400Z,100914.47
2023-01-30T02:28:18.712Z,100913.59
2023-01-30T02:29:13.594Z,100911.03
2023-01-30T02:30:03.700Z,100922.06
2023-01-30T02:30:50.549Z,100911.88
2023-01-30T02:31:25.650Z,100914.44
2023-01-30T02:32:16.088Z,100910.16
2023-01-30T02:33:01.335Z,100917.81
2023-01-30T02:33:52.044Z,100913.56
2023-01-30T02:34:31.845Z,100911.00
2023-01-30T02:35:06.214Z,100909.31
2023-01-30T02:35:56.156Z,100912.72
2023-01-30T02:36:38.075Z,100912.75
2023-01-30T02:37:15.669Z,100911.91
2023-01-30T02:38:24.559Z,100912.75
2023-01-30T02:39:19.249Z,100910.22
2023-01-30T02:40:08.388Z,100906.81
2023-01-30T02:40:52.094Z,100901.69
2023-01-30T02:41:45.463Z,100900.81
2023-01-30T02:42:40.357Z,100898.25
2023-01-30T02:43:25.383Z,100899.94
2023-01-30T02:44:05.834Z,100896.53
2023-01-30T02:44:43.251Z,100896.50
2023-01-30T02:45:20.894Z,100890.53
2023-01-30T02:46:07.672Z,100891.38
2023-01-30T02:46:58.109Z,100899.88
2023-01-30T02:47:41.873Z,100897.28
2023-01-30T02:48:21.724Z,100884.53
2023-01-30T02:49:09.077Z,100880.25
2023-01-30T02:49:55.962Z,100891.31
2023-01-30T02:51:07.745Z,100885.31
2023-01-30T02:51:43.156Z,100878.56
2023-01-30T02:52:17.488Z,100882.81
2023-01-30T02:52:50.193Z,100886.16
2023-01-30T02:53:22.031Z,100881.91
2023-01-30T02:53:54.602Z,100881.06
2023-01-30T02:54:29.191Z,100883.56
2023-01-30T02:55:02.662Z,100884.41
2023-01-30T02:55:35.690Z,100880.16
2023-01-30T02:56:07.602Z,100880.09
2023-01-30T02:56:46.920Z,100877.59
2023-01-30T02:57:24.285Z,100875.03
2023-01-30T02:57:56.308Z,100875.84
2023-01-30T02:58:37.199Z,100876.69
2023-01-30T02:59:09.246Z,100875.00
2023-01-30T02:59:47.245Z,100870.75
2023-01-30T03:00:27.771Z,100878.41
2023-01-30T03:01:20.485Z,100877.59
2023-01-30T03:02:19.432Z,100871.59
2023-01-30T03:03:07.508Z,100869.88
2023-01-30T03:03:51.038Z,100868.19
2023-01-30T03:04:31.118Z,100861.38
2023-01-30T03:05:28.974Z,100864.72
2023-01-30T03:06:09.319Z,100867.28
2023-01-30T03:07:01.507Z,100862.19
2023-01-30T03:07:46.530Z,100863.88
2023-01-30T03:08:36.899Z,100861.31
2023-01-30T03:09:11.165Z,100864.72
2023-01-30T03:10:13.122Z,100868.09
2023-01-30T03:10:47.493Z,100866.41
2023-01-30T03:11:24.470Z,100865.53
2023-01-30T03:12:16.751Z,100866.38
2023-01-30T03:13:20.910Z,100864.66
2023-01-30T03:14:04.157Z,100871.47
2023-01-30T03:14:48.312Z,100862.03
2023-01-30T03:16:09.408Z,100866.28
2023-01-30T03:16:44.648Z,100867.97
2023-01-30T03:17:20.867Z,100867.13
2023-01-30T03:17:56.390Z,100860.34
2023-01-30T03:18:31.178Z,100864.56
2023-01-30T03:19:06.022Z,100856.03
2023-01-30T03:19:38.380Z,100859.41
2023-01-30T03:20:10.895Z,100855.16
2023-01-30T03:20:42.657Z,100856.03
2023-01-30T03:21:21.640Z,100861.13
2023-01-30T03:21:53.272Z,100859.41
2023-01-30T03:22:24.956Z,100852.59
2023-01-30T03:22:56.631Z,100850.91
2023-01-30T03:23:28.314Z,100863.66
2023-01-30T03:23:59.970Z,100849.28
2023-01-30T03:24:31.670Z,100862.03
2023-01-30T03:25:03.440Z,100859.47
2023-01-30T03:25:38.255Z,100852.69
2023-01-30T03:26:18.375Z,100862.88
2023-01-30T03:27:05.828Z,100857.72
2023-01-30T03:27:39.085Z,100854.34
2023-01-30T03:28:12.783Z,100858.56
2023-01-30T03:28:47.398Z,100856.03
2023-01-30T03:29:19.043Z,100855.19
2023-01-30T03:29:54.822Z,100862.81
2023-01-30T03:30:26.809Z,100856.88
2023-01-30T03:30:58.676Z,100860.25
2023-01-30T03:31:30.583Z,100850.91
2023-01-30T03:32:02.454Z,100863.63
2023-01-30T03:32:34.105Z,100862.75
2023-01-30T03:33:07.851Z,100855.09
2023-01-30T03:33:41.901Z,100856.78
2023-01-30T03:34:13.593Z,100856.78
2023-01-30T03:34:45.236Z,100853.38
2023-01-30T03:35:18.163Z,100855.09
2023-01-30T03:35:52.286Z,100851.69
2023-01-30T03:36:24.043Z,100857.63
2023-01-30T03:36:57.566Z,100855.84
2023-01-30T03:37:29.356Z,100845.59
2023-01-30T03:38:03.674Z,100848.94
2023-01-30T03:38:36.194Z,100851.47
2023-01-30T03:39:08.453Z,100854.03
2023-01-30T03:39:40.295Z,100854.88
2023-01-30T03:40:14.515Z,100850.69
2023-01-30T03:40:46.586Z,100844.75
2023-01-30T03:41:18.356Z,100844.72
2023-01-30T03:41:50.436Z,100854.00
2023-01-30T03:42:22.338Z,100839.56
2023-01-30T03:42:53.969Z,100850.63
2023-01-30T03:43:25.638Z,100857.50
2023-01-30T03:43:59.972Z,100844.75
2023-01-30T03:44:31.662Z,100839.66
2023-01-30T03:45:03.565Z,100836.28
2023-01-30T03:45:35.320Z,100838.81
2023-01-30T03:46:07.039Z,100837.97
2023-01-30T03:46:38.741Z,100844.75
2023-01-30T03:47:10.417Z,100833.72
2023-01-30T03:47:42.043Z,100835.41
2023-01-30T03:48:15.762Z,100843.03
2023-01-30T03:48:47.417Z,100843.03
2023-01-30T03:49:19.097Z,100833.66
2023-01-30T03:49:50.760Z,100827.75
2023-01-30T03:50:22.439Z,100833.66
2023-01-30T03:50:54.473Z,100832.81
2023-01-30T03:51:26.182Z,100827.69
2023-01-30T03:51:57.839Z,100830.22
2023-01-30T03:52:29.478Z,100831.88
2023-01-30T03:53:03.576Z,100833.56
2023-01-30T03:53:37.265Z,100833.63
2023-01-30T03:54:16.329Z,100825.97
2023-01-30T03:54:48.160Z,100826.84
2023-01-30T03:55:20.054Z,100835.34
2023-01-30T03:55:53.686Z,100824.28
2023-01-30T03:56:25.522Z,100834.50
2023-01-30T03:56:58.637Z,100839.56
2023-01-30T03:57:30.473Z,100831.03
2023-01-30T03:58:02.130Z,100838.66
2023-01-30T03:58:33.795Z,100838.66
2023-01-30T03:59:05.409Z,100825.06
2023-01-30T03:59:37.062Z,100834.41
2023-01-30T04:00:09.605Z,100830.22
2023-01-30T04:00:41.253Z,100836.19
2023-01-30T04:01:14.977Z,100831.94
2023-01-30T04:01:46.651Z,100836.97
2023-01-30T04:02:23.074Z,100828.38
2023-01-30T04:02:55.273Z,100826.69
2023-01-30T04:03:28.180Z,100827.53
2023-01-30T04:03:59.925Z,100828.38
2023-01-30T04:04:34.519Z,100832.72
2023-01-30T04:05:06.578Z,100825.06
2023-01-30T04:05:40.831Z,100819.06
2023-01-30T04:06:12.478Z,100818.25
2023-01-30T04:06:44.134Z,100825.06
2023-01-30T04:07:17.154Z,100821.59
2023-01-30T04:07:49.446Z,100826.69
2023-01-30T04:08:21.185Z,100821.66
2023-01-30T04:08:55.655Z,100818.28
2023-01-30T04:09:27.384Z,100820.81
2023-01-30T04:09:59.032Z,100820.81
2023-01-30T04:10:30.679Z,100818.22
2023-01-30T04:11:02.359Z,100819.97
2023-01-30T04:11:34.011Z,100816.50
2023-01-30T04:12:05.938Z,100817.41
2023-01-30T04:12:40.178Z,100812.31
2023-01-30T04:13:11.830Z,100804.63
2023-01-30T04:13:43.458Z,100814.81
2023-01-30T04:14:17.719Z,100813.09
2023-01-30T04:14:49.367Z,100813.03
2023-01-30T04:15:25.103Z,100814.72
2023-01-30T04:16:20.715Z,100809.59
2023-01-30T04:16:52.433Z,100801.13
2023-01-30T04:17:26.419Z,100806.22
2023-01-30T04:17:58.164Z,100801.13
2023-01-30T04:18:29.821Z,100802.81
2023-01-30T04:19:04.267Z,100807.94
2023-01-30T04:19:35.907Z,100818.13
2023-01-30T04:20:12.106Z,100814.69
2023-01-30T04:20:44.898Z,100809.53
2023-01-30T04:21:17.008Z,100818.03
2023-01-30T04:21:48.660Z,100809.56
2023-01-30T04:22:20.319Z,100812.09
2023-01-30T04:22:54.290Z,100813.00
2023-01-30T04:23:25.938Z,100813.84
2023-01-30T04:24:01.906Z,100822.34
2023-01-30T04:24:35.123Z,100815.56
2023-01-30T04:25:07.008Z,100809.63
2023-01-30T04:25:38.644Z,100806.28
2023-01-30T04:26:14.700Z,100817.28
2023-01-30T04:26:47.937Z,100802.03
2023-01-30T04:27:22.225Z,100807.94
2023-01-30T04:27:53.857Z,100810.53
2023-01-30T04:28:25.994Z,100813.09
2023-01-30T04:28:59.159Z,100813.94
2023-01-30T04:29:30.801Z,100797.78
2023-01-30T04:30:02.531Z,100809.69
2023-01-30T04:30:36.297Z,100793.56
2023-01-30T04:31:08.172Z,100802.06
2023-01-30T04:31:39.895Z,100809.69
2023-01-30T04:32:11.594Z,100810.50
2023-01-30T04:32:52.880Z,100807.13
2023-01-30T04:33:33.233Z,100805.38
2023-01-30T04:34:07.556Z,100804.59
2023-01-30T04:34:40.721Z,100806.28
2023-01-30T04:35:14.377Z,100807.09
2023-01-30T04:35:57.329Z,100796.94
2023-01-30T04:36:32.099Z,100800.28
2023-01-30T04:37:03.803Z,100800.28
2023-01-30T04:37:35.575Z,100797.75
2023-01-30T04:38:07.278Z,100788.38
2023-01-30T04:38:39.542Z,100796.00
2023-01-30T04:39:11.202Z,100796.00
2023-01-30T04:39:42.874Z,100803.66
2023-01-30T04:40:17.179Z,100801.91
2023-01-30T04:40:51.820Z,100799.34
2023-01-30T04:41:25.820Z,100797.63
2023-01-30T04:41:57.470Z,100790.88
2023-01-30T04:42:29.121Z,100791.72
2023-01-30T04:43:00.779Z,100795.94
2023-01-30T04:43:32.482Z,100786.63
2023-01-30T04:44:04.240Z,100789.22
2023-01-30T04:44:35.859Z,100790.06
2023-01-30T04:45:08.042Z,100783.28
2023-01-30T04:45:43.522Z,100776.44
2023-01-30T04:46:15.223Z,100781.53
2023-01-30T04:46:46.953Z,100776.44
2023-01-30T04:47:18.654Z,100783.22
2023-01-30T04:47:52.694Z,100774.75
2023-01-30T04:48:29.403Z,100780.66
2023-01-30T04:49:01.040Z,100771.34
2023-01-30T04:49:32.685Z,100773.03
2023-01-30T04:50:04.611Z,100773.06
2023-01-30T04:50:36.269Z,100773.06
2023-01-30T04:51:10.849Z,100770.53
2023-01-30T04:51:42.502Z,100773.88
2023-01-30T04:52:14.157Z,100777.28
2023-01-30T04:52:45.831Z,100777.34
2023-01-30T04:53:18.424Z,100767.94
2023-01-30T04:53:50.117Z,100773.03
2023-01-30T04:54:21.926Z,100769.63
2023-01-30T04:55:00.925Z,100771.31
2023-01-30T04:55:32.964Z,100772.16
2023-01-30T04:56:05.082Z,100773.88
2023-01-30T04:56:36.749Z,100778.91
2023-01-30T04:57:08.448Z,100776.34
2023-01-30T04:57:40.092Z,100784.00
2023-01-30T04:58:13.360Z,100779.75
2023-01-30T04:58:45.058Z,100777.19
2023-01-30T04:59:16.787Z,100775.50
2023-01-30T04:59:48.544Z,100780.59
2023-01-30T05:00:20.323Z,100772.06
2023-01-30T05:00:52.016Z,100782.22
2023-01-30T05:01:23.722Z,100783.06
2023-01-30T05:01:55.626Z,100781.38
2023-01-30T05:02:27.330Z,100775.44
2023-01-30T05:02:59.361Z,100778.81
2023-01-30T05:03:30.992Z,100780.53
2023-01-30T05:04:03.794Z,100780.53
2023-01-30T05:04:35.517Z,100787.34
2023-01-30T05:05:07.434Z,100783.97
2023-01-30T05:05:39.171Z,100772.94
2023-01-30T05:06:10.909Z,100778.81
2023-01-30T05:06:42.628Z,100778.81
2023-01-30T05:07:14.260Z,100781.34
2023-01-30T05:07:54.922Z,100779.66
2023-01-30T05:08:26.572Z,100782.22
2023-01-30T05:08:58.721Z,100780.50
2023-01-30T05:09:30.347Z,100767.75
2023-01-30T05:10:02.998Z,100777.09
2023-01-30T05:10:37.224Z,100778.81
2023-01-30T05:11:08.907Z,100777.94
2023-01-30T05:11:40.579Z,100771.16
2023-01-30T05:12:14.672Z,100781.34
2023-01-30T05:12:49.087Z,100773.72
2023-01-30T05:13:23.936Z,100766.06
2023-01-30T05:13:55.637Z,100772.81
2023-01-30T05:14:27.268Z,100768.59
2023-01-30T05:14:58.924Z,100765.22
2023-01-30T05:15:32.680Z,100775.41
2023-01-30T05:16:04.651Z,100760.97
2023-01-30T05:16:36.287Z,100770.31
2023-01-30T05:17:09.618Z,100768.63
2023-01-30T05:17:44.719Z,100770.31
2023-01-30T05:18:16.453Z,100767.75
2023-01-30T05:18:48.675Z,100774.56
2023-01-30T05:19:20.309Z,100772.00
2023-01-30T05:19:54.294Z,100766.88
2023-01-30T05:20:25.980Z,100766.00
2023-01-30T05:21:13.446Z,100766.84
2023-01-30T05:21:46.619Z,100771.91
2023-01-30T05:22:18.271Z,100760.91
2023-01-30T05:22:49.992Z,100766.00
2023-01-30T05:23:21.632Z,100767.72
2023-01-30T05:23:53.819Z,100766.88
2023-01-30T05:24:26.922Z,100759.22
2023-01-30T05:24:58.586Z,100763.44
2023-01-30T05:25:37.430Z,100754.97
2023-01-30T05:26:10.280Z,100754.94
2023-01-30T05:26:41.952Z,100758.34
2023-01-30T05:27:13.595Z,100763.44
2023-01-30T05:27:45.240Z,100762.59
2023-01-30T05:28:16.900Z,100754.09
2023-01-30T05:28:56.373Z,100763.44
2023-01-30T05:29:28.069Z,100765.16
2023-01-30T05:29:59.716Z,100759.19
2023-01-30T05:30:31.429Z,100759.19
2023-01-30T05:31:09.243Z,100758.28
2023-01-30T05:31:41.057Z,100771.91
2023-01-30T05:32:14.398Z,100764.28
2023-01-30T05:32:53.516Z,100765.13
2023-01-30T05:33:27.222Z,100771.91
2023-01-30T05:33:58.967Z,100755.75
2023-01-30T05:34:30.687Z,100763.38
2023-01-30T05:35:02.383Z,100763.38
2023-01-30T05:35:36.102Z,100762.53
2023-01-30T05:36:08.299Z,100766.75
2023-01-30T05:36:40.112Z,100757.44
2023-01-30T05:37:12.557Z,100762.50
2023-01-30T05:37:44.245Z,100760.00
2023-01-30T05:38:18.568Z,100758.34
2023-01-30T05:38:52.176Z,100757.50
2023-01-30T05:39:23.904Z,100760.88
2023-01-30T05:39:55.556Z,100759.13
2023-01-30T05:40:35.483Z,100760.00
2023-01-30T05:41:08.424Z,100755.75
2023-01-30T05:41:40.283Z,100758.28
2023-01-30T05:42:15.131Z,100754.09
2023-01-30T05:42:46.806Z,100758.28
2023-01-30T05:43:18.502Z,100756.59
2023-01-30T05:43:51.080Z,100753.25
2023-01-30T05:44:22.792Z,100748.50
2023-01-30T05:44:54.479Z,100749.06
2023-01-30T05:45:26.136Z,100753.91
2023-01-30T05:45:59.647Z,100760.50
2023-01-30T05:46:31.316Z,100754.50
2023-01-30T05:47:03.003Z,100755.31
2023-01-30T05:47:36.723Z,100751.72
2023-01-30T05:48:08.368Z,100747.84
2023-01-30T05:48:42.382Z,100753.69
2023-01-30T05:49:14.282Z,100746.75
2023-01-30T05:49:47.154Z,100753.44
2023-01-30T05:50:18.873Z,100750.75
2023-01-30T05:51:41.419Z,100754.13
2023-01-30T05:52:13.057Z,100759.19
2023-01-30T05:52:47.298Z,100754.94
2023-01-30T05:53:23.288Z,100755.78
2023-01-30T05:53:57.304Z,100756.56
2023-01-30T05:54:29.005Z,100757.38
2023-01-30T05:55:00.678Z,100761.56
2023-01-30T05:55:32.330Z,100755.59
2023-01-30T05:56:08.112Z,100753.00
2023-01-30T05:56:39.955Z,100760.66
2023-01-30T05:57:12.720Z,100755.53
2023-01-30T05:57:44.384Z,100761.44
2023-01-30T05:58:16.056Z,100760.56
2023-01-30T05:58:55.050Z,100758.81
2023-01-30T05:59:29.373Z,100762.19
2023-01-30T06:00:01.008Z,100762.16
2023-01-30T06:00:32.701Z,100762.19
2023-01-30T06:01:12.538Z,100762.16
2023-01-30T06:01:47.085Z,100764.63
2023-01-30T06:02:18.714Z,100764.63
2023-01-30T06:02:50.400Z,100765.47
2023-01-30T06:03:24.188Z,100762.06
2023-01-30T06:03:58.680Z,100766.28
2023-01-30T06:04:30.361Z,100766.28
2023-01-30T06:05:05.970Z,100767.13
2023-01-30T06:05:38.942Z,100769.66
2023-01-30T06:06:12.666Z,100769.63
2023-01-30T06:06:45.689Z,100772.16
2023-01-30T06:07:17.337Z,100764.50
2023-01-30T06:07:49.024Z,100760.22
2023-01-30T06:08:22.812Z,100771.25
2023-01-30T06:08:57.575Z,100765.25
2023-01-30T06:09:31.753Z,100771.22
2023-01-30T06:10:03.612Z,100768.69
2023-01-30T06:10:38.427Z,100762.69
2023-01-30T06:11:13.831Z,100773.78
2023-01-30T06:11:45.606Z,100755.06
2023-01-30T06:12:18.653Z,100763.53
2023-01-30T06:12:50.256Z,100765.22
2023-01-30T06:13:21.924Z,100765.22
2023-01-30T06:13:53.748Z,100760.13
2023-01-30T06:14:25.424Z,100763.53
2023-01-30T06:14:57.146Z,100758.44
2023-01-30T06:15:31.603Z,100760.97
2023-01-30T06:16:03.349Z,100760.97
2023-01-30T06:16:36.991Z,100759.22
2023-01-30T06:17:08.725Z,100753.31
2023-01-30T06:17:46.321Z,100758.44
2023-01-30T06:18:20.177Z,100761.88
2023-01-30T06:18:51.888Z,100753.41
2023-01-30T06:19:25.887Z,100765.25
2023-01-30T06:19:57.537Z,100759.31
2023-01-30T06:20:29.177Z,100760.97
2023-01-30T06:21:03.698Z,100765.22
2023-01-30T06:21:35.388Z,100759.28
2023-01-30T06:22:08.157Z,100770.31
2023-01-30T06:22:39.813Z,100765.22
2023-01-30T06:23:11.446Z,100766.06
2023-01-30T06:23:43.748Z,100766.06
2023-01-30T06:24:15.550Z,100761.81
2023-01-30T06:24:47.252Z,100770.25
2023-01-30T06:25:26.074Z,100764.28
2023-01-30T06:26:03.272Z,100767.66
2023-01-30T06:26:37.795Z,100766.84
2023-01-30T06:27:09.477Z,100763.44
2023-01-30T06:27:43.561Z,100767.69
2023-01-30T06:28:16.308Z,100766.06
2023-01-30T06:28:48.477Z,100766.88
2023-01-30T06:29:20.131Z,100762.63
2023-01-30T06:29:51.761Z,100766.88
2023-01-30T06:30:23.491Z,100762.59
2023-01-30T06:30:55.291Z,100763.44
2023-01-30T06:31:30.130Z,100760.06
2023-01-30T06:32:01.921Z,100764.31
2023-01-30T06:32:33.596Z,100765.16
2023-01-30T06:33:05.728Z,100761.81
2023-01-30T06:33:37.558Z,100764.31
2023-01-30T06:34:12.998Z,100762.63
2023-01-30T06:34:44.639Z,100757.56
2023-01-30T06:35:16.767Z,100766.00
2023-01-30T06:35:51.305Z,100763.44
2023-01-30T06:36:22.912Z,100760.03
2023-01-30T06:36:54.613Z,100761.75
2023-01-30T06:37:26.263Z,100754.13
2023-01-30T06:37:57.917Z,100756.72
2023-01-30T06:38:29.663Z,100750.72
2023-01-30T06:39:03.664Z,100755.03
2023-01-30T06:39:35.392Z,100747.41
2023-01-30T06:40:07.406Z,100749.94
2023-01-30T06:40:39.819Z,100747.41
2023-01-30T06:41:11.557Z,100749.97
2023-01-30T06:41:43.173Z,100745.75
2023-01-30T06:42:14.894Z,100740.69